createdAt,value
2023-05-01T00:01:00.264Z,55.22
2023-05-01T00:03:27.454Z,55.23
2023-05-01T00:06:00.125Z,55.18
2023-05-01T00:08:27.536Z,55.30
2023-05-01T00:10:54.393Z,55.23
2023-05-01T00:13:23.176Z,55.42
2023-05-01T00:15:50.685Z,55.43
2023-05-01T00:18:17.799Z,55.37
2023-05-01T00:20:44.643Z,55.34
2023-05-01T00:23:12.482Z,55.35
2023-05-01T00:25:39.776Z,55.37
2023-05-01T00:28:06.645Z,55.52
2023-05-01T00:30:34.551Z,55.39
2023-05-01T00:33:02.024Z,55.28
2023-05-01T00:35:29.853Z,55.20
2023-05-01T00:37:56.674Z,55.23
2023-05-01T00:40:23.538Z,55.13
2023-05-01T00:42:50.308Z,55.15
2023-05-01T00:45:17.216Z,55.11
2023-05-01T00:47:43.990Z,55.14
2023-05-01T00:50:11.255Z,55.05
2023-05-01T00:52:38.160Z,55.13
2023-05-01T00:55:06.032Z,55.02
2023-05-01T00:57:33.370Z,54.97
2023-05-01T01:00:00.275Z,55.07
2023-05-01T01:02:27.351Z,55.09
2023-05-01T01:04:54.369Z,55.00
2023-05-01T01:07:33.823Z,54.96
2023-05-01T01:10:35.774Z,54.90
2023-05-01T01:13:08.682Z,54.95
2023-05-01T01:15:44.749Z,54.92
2023-05-01T01:18:46.127Z,54.84
2023-05-01T01:21:22.371Z,54.82
2023-05-01T01:24:41.653Z,54.79
2023-05-01T01:27:30.420Z,54.74
2023-05-01T01:30:20.796Z,54.67
2023-05-01T01:33:09.460Z,54.63
2023-05-01T01:35:36.574Z,54.58
2023-05-01T01:38:06.292Z,54.71
2023-05-01T01:40:39.178Z,54.70
2023-05-01T01:43:07.130Z,54.78
2023-05-01T01:45:37.981Z,54.69
2023-05-01T01:48:05.879Z,54.69
2023-05-01T01:50:32.764Z,54.71
2023-05-01T01:53:00.323Z,54.58
2023-05-01T01:55:27.872Z,54.64
2023-05-01T01:57:54.764Z,54.83
2023-05-01T02:00:21.827Z,54.74
2023-05-01T02:02:49.068Z,54.63
2023-05-01T02:05:17.059Z,54.64
2023-05-01T02:07:46.291Z,54.70
2023-05-01T02:10:13.968Z,54.80
2023-05-01T02:12:42.209Z,54.87
2023-05-01T02:15:09.294Z,54.77
2023-05-01T02:17:38.306Z,54.79
2023-05-01T02:20:06.196Z,54.85
2023-05-01T02:22:33.719Z,55.00
2023-05-01T02:25:01.099Z,55.08
2023-05-01T02:27:32.351Z,55.15
2023-05-01T02:29:59.241Z,55.01
2023-05-01T02:32:26.556Z,54.91
2023-05-01T02:34:53.428Z,54.93
2023-05-01T02:37:20.373Z,54.85
2023-05-01T02:39:47.171Z,54.83
2023-05-01T02:42:14.164Z,54.85
2023-05-01T02:44:44.363Z,54.78
2023-05-01T02:47:11.405Z,54.78
2023-05-01T02:49:38.584Z,54.77
2023-05-01T02:52:05.645Z,54.82
2023-05-01T02:54:32.543Z,54.92
2023-05-01T02:56:59.871Z,54.82
2023-05-01T02:59:26.630Z,54.79
2023-05-01T03:01:53.425Z,54.84
2023-05-01T03:04:21.037Z,54.78
2023-05-01T03:06:48.319Z,54.82
2023-05-01T03:09:15.231Z,54.71
2023-05-01T03:11:42.056Z,54.69
2023-05-01T03:14:08.837Z,54.57
2023-05-01T03:16:35.741Z,54.46
2023-05-01T03:19:02.638Z,54.42
2023-05-01T03:21:29.592Z,54.46
2023-05-01T03:23:56.370Z,54.27
2023-05-01T03:26:23.197Z,53.99
2023-05-01T03:28:50.220Z,53.88
2023-05-01T03:31:17.219Z,53.72
2023-05-01T03:33:44.342Z,53.53
2023-05-01T03:36:14.115Z,53.50
2023-05-01T03:38:40.989Z,53.52
2023-05-01T03:41:08.366Z,53.25
2023-05-01T03:43:53.829Z,53.00
2023-05-01T03:46:33.140Z,52.74
2023-05-01T03:49:00.902Z,52.55
2023-05-01T03:51:28.759Z,52.57
2023-05-01T03:53:58.918Z,52.29
2023-05-01T03:56:26.538Z,52.09
2023-05-01T03:58:53.752Z,51.86
2023-05-01T04:01:20.718Z,51.67
2023-05-01T04:03:48.363Z,51.32
2023-05-01T04:06:17.370Z,51.07
2023-05-01T04:08:44.689Z,50.87
2023-05-01T04:11:11.552Z,50.71
2023-05-01T04:13:38.478Z,50.23
2023-05-01T04:16:06.268Z,50.01
2023-05-01T04:18:33.200Z,49.92
2023-05-01T04:21:00.217Z,49.80
2023-05-01T04:23:27.053Z,49.42
2023-05-01T04:25:56.161Z,49.27
2023-05-01T04:28:23.320Z,49.14
2023-05-01T04:30:50.405Z,49.06
2023-05-01T04:33:17.300Z,48.90
2023-05-01T04:35:44.279Z,48.54
2023-05-01T04:38:11.786Z,48.51
2023-05-01T04:40:39.320Z,48.34
2023-05-01T04:43:06.997Z,47.99
2023-05-01T04:45:35.116Z,47.66
2023-05-01T04:48:02.696Z,47.41
2023-05-01T04:50:29.827Z,47.27
2023-05-01T04:52:57.401Z,46.90
2023-05-01T04:55:25.021Z,46.72
2023-05-01T04:58:03.629Z,46.43
2023-05-01T05:00:30.965Z,46.43
2023-05-01T05:02:58.136Z,46.35
2023-05-01T05:05:26.228Z,45.90
2023-05-01T05:07:54.150Z,45.62
2023-05-01T05:10:38.234Z,45.63
2023-05-01T05:13:23.776Z,45.20
2023-05-01T05:15:58.329Z,45.20
2023-05-01T05:18:25.490Z,44.86
2023-05-01T05:20:54.501Z,44.67
2023-05-01T05:23:23.508Z,44.52
2023-05-01T05:25:50.537Z,43.96
2023-05-01T05:28:20.388Z,43.44
2023-05-01T05:30:47.485Z,43.48
2023-05-01T05:33:16.399Z,43.05
2023-05-01T05:35:46.091Z,42.93
2023-05-01T05:38:16.106Z,43.19
2023-05-01T05:40:53.498Z,42.89
2023-05-01T05:43:25.572Z,42.97
2023-05-01T05:46:01.352Z,42.89
2023-05-01T05:48:31.018Z,43.00
2023-05-01T05:51:02.105Z,43.21
2023-05-01T05:53:31.666Z,43.49
2023-05-01T05:56:01.121Z,43.33
2023-05-01T05:58:31.546Z,43.47
2023-05-01T06:01:00.517Z,43.93
2023-05-01T06:03:29.515Z,44.01
2023-05-01T06:06:02.513Z,44.28
2023-05-01T06:08:33.248Z,44.73
2023-05-01T06:11:03.159Z,44.82
2023-05-01T06:13:33.302Z,44.90
2023-05-01T06:16:03.173Z,45.51
2023-05-01T06:18:33.360Z,46.08
2023-05-01T06:21:03.280Z,46.32
2023-05-01T06:23:34.297Z,46.82
2023-05-01T06:26:23.850Z,47.28
2023-05-01T06:28:54.671Z,47.71
2023-05-01T06:31:24.348Z,47.98
2023-05-01T06:33:57.283Z,47.91
2023-05-01T06:44:05.560Z,48.30
2023-05-01T06:46:32.606Z,48.34
2023-05-01T06:48:59.635Z,48.33
2023-05-01T06:51:26.628Z,48.20
2023-05-01T06:53:53.580Z,48.48
2023-05-01T06:56:21.947Z,48.40
2023-05-01T06:58:48.845Z,48.38
2023-05-01T07:01:17.731Z,48.39
2023-05-01T07:03:45.104Z,48.75
2023-05-01T07:06:12.119Z,48.60
2023-05-01T07:08:39.198Z,48.56
2023-05-01T07:11:06.115Z,48.42
2023-05-01T07:13:32.997Z,48.29
2023-05-01T07:15:59.825Z,48.37
2023-05-01T07:18:26.654Z,48.37
2023-05-01T07:20:53.870Z,47.87
2023-05-01T07:23:20.897Z,47.80
2023-05-01T07:25:48.275Z,47.87
2023-05-01T07:28:15.881Z,47.84
2023-05-01T07:30:43.108Z,48.08
2023-05-01T07:33:10.056Z,47.99
2023-05-01T07:35:37.205Z,47.56
2023-05-01T07:38:11.566Z,47.41
2023-05-01T07:40:38.630Z,47.55
2023-05-01T07:43:05.602Z,47.51
2023-05-01T07:45:32.547Z,47.65
2023-05-01T07:47:59.900Z,47.48
2023-05-01T07:50:26.907Z,47.23
2023-05-01T07:52:53.843Z,46.53
2023-05-01T07:55:22.689Z,46.81
2023-05-01T07:57:49.570Z,46.47
2023-05-01T08:00:17.015Z,45.80
2023-05-01T08:02:44.568Z,45.78
2023-05-01T08:05:17.570Z,45.77
2023-05-01T08:07:45.278Z,45.15
2023-05-01T08:10:12.205Z,44.72
2023-05-01T08:12:39.609Z,44.25
2023-05-01T08:15:07.622Z,43.77
2023-05-01T08:17:37.830Z,43.65
2023-05-01T08:20:05.542Z,43.85
2023-05-01T08:22:32.368Z,44.09
2023-05-01T08:24:59.249Z,43.92
2023-05-01T08:27:26.582Z,43.62
2023-05-01T08:29:53.460Z,43.16
2023-05-01T08:32:20.376Z,42.98
2023-05-01T08:34:47.316Z,42.99
2023-05-01T08:37:14.788Z,42.77
2023-05-01T08:39:41.721Z,42.76
2023-05-01T08:42:08.514Z,42.43
2023-05-01T08:44:38.385Z,42.12
2023-05-01T08:47:13.388Z,41.74
2023-05-01T08:49:41.215Z,41.40
2023-05-01T08:52:08.745Z,41.41
2023-05-01T08:54:35.894Z,40.86
2023-05-01T08:57:03.909Z,40.74
2023-05-01T08:59:32.132Z,41.14
2023-05-01T09:02:01.769Z,40.89
2023-05-01T09:04:32.373Z,40.96
2023-05-01T09:07:02.713Z,40.85
2023-05-01T09:09:30.246Z,40.72
2023-05-01T09:12:08.605Z,39.78
2023-05-01T09:14:35.418Z,39.90
2023-05-01T09:17:02.365Z,39.87
2023-05-01T09:19:29.296Z,39.74
2023-05-01T09:21:56.105Z,40.06
2023-05-01T09:24:26.050Z,39.27
2023-05-01T09:26:53.104Z,39.04
2023-05-01T09:29:38.401Z,38.83
2023-05-01T09:32:21.921Z,38.72
2023-05-01T09:34:49.567Z,38.34
2023-05-01T09:37:29.236Z,38.35
2023-05-01T09:40:06.936Z,37.85
2023-05-01T09:42:35.464Z,37.07
2023-05-01T09:45:04.869Z,36.59
2023-05-01T09:47:31.985Z,35.68
2023-05-01T09:49:59.824Z,35.50
2023-05-01T09:52:28.713Z,35.77
2023-05-01T09:55:18.036Z,35.27
2023-05-01T09:57:46.515Z,34.88
2023-05-01T10:00:15.601Z,35.13
2023-05-01T10:02:47.948Z,34.35
2023-05-01T10:05:15.236Z,34.56
2023-05-01T10:07:59.244Z,34.44
2023-05-01T10:10:26.281Z,34.08
2023-05-01T10:12:53.328Z,33.61
2023-05-01T10:15:26.253Z,33.59
2023-05-01T10:17:54.381Z,33.06
2023-05-01T10:20:21.826Z,31.76
2023-05-01T10:22:49.563Z,31.36
2023-05-01T10:25:16.813Z,30.86
2023-05-01T10:27:43.646Z,30.79
2023-05-01T10:30:11.430Z,30.65
2023-05-01T10:32:39.040Z,30.81
2023-05-01T10:35:12.052Z,30.57
2023-05-01T10:37:48.997Z,30.55
2023-05-01T10:40:48.425Z,30.34
2023-05-01T10:43:19.609Z,30.54
2023-05-01T10:45:47.432Z,30.39
2023-05-01T10:48:39.820Z,30.53
2023-05-01T10:51:15.594Z,30.18
2023-05-01T10:53:42.925Z,29.56
2023-05-01T10:56:24.217Z,28.99
2023-05-01T10:58:54.147Z,28.19
2023-05-01T11:01:34.430Z,28.16
2023-05-01T11:04:05.132Z,27.77
2023-05-01T11:06:32.160Z,27.74
2023-05-01T11:08:59.458Z,27.90
2023-05-01T11:11:27.130Z,27.96
2023-05-01T11:14:04.322Z,27.43
2023-05-01T11:16:38.190Z,27.09
2023-05-01T11:19:14.062Z,26.64
2023-05-01T11:21:42.161Z,26.21
2023-05-01T11:24:09.748Z,25.89
2023-05-01T11:26:41.032Z,25.87
2023-05-01T11:29:11.868Z,25.01
2023-05-01T11:31:39.461Z,24.22
2023-05-01T11:34:09.441Z,23.67
2023-05-01T11:36:49.576Z,23.82
2023-05-01T11:39:17.451Z,24.51
2023-05-01T11:41:44.442Z,24.83
2023-05-01T11:44:16.500Z,24.37
2023-05-01T11:46:43.415Z,23.89
2023-05-01T11:49:18.170Z,24.31
2023-05-01T11:51:45.621Z,24.43
2023-05-01T11:54:18.986Z,24.15
2023-05-01T11:56:49.467Z,23.77
2023-05-01T11:59:17.346Z,23.80
2023-05-01T12:01:46.521Z,23.42
2023-05-01T12:04:15.102Z,23.23
2023-05-01T12:06:45.646Z,23.47
2023-05-01T12:09:16.605Z,24.25
2023-05-01T12:11:43.666Z,24.68
2023-05-01T12:14:10.640Z,23.89
2023-05-01T12:16:41.194Z,23.33
2023-05-01T12:19:08.529Z,23.34
2023-05-01T12:21:37.118Z,23.94
2023-05-01T12:24:18.501Z,23.51
2023-05-01T12:26:46.248Z,23.54
2023-05-01T12:29:13.466Z,23.17
2023-05-01T12:31:49.480Z,23.09
2023-05-01T12:34:16.787Z,23.17
2023-05-01T12:36:52.814Z,23.00
2023-05-01T12:39:19.748Z,23.14
2023-05-01T12:41:48.721Z,22.24
2023-05-01T12:44:19.464Z,22.25
2023-05-01T12:46:53.186Z,22.60
2023-05-01T12:49:20.453Z,22.20
2023-05-01T12:51:51.344Z,22.40
2023-05-01T12:54:29.603Z,22.98
2023-05-01T12:57:09.682Z,23.19
2023-05-01T12:59:38.306Z,22.99
2023-05-01T13:02:06.902Z,22.41
2023-05-01T13:04:35.374Z,22.08
2023-05-01T13:07:02.685Z,21.63
2023-05-01T13:09:32.777Z,21.64
2023-05-01T13:12:05.943Z,21.76
2023-05-01T13:14:38.417Z,21.87
2023-05-01T13:17:12.139Z,22.14
2023-05-01T13:19:39.275Z,22.43
2023-05-01T13:22:06.498Z,22.44
2023-05-01T13:24:40.020Z,21.56
2023-05-01T13:27:08.751Z,21.57
2023-05-01T13:29:35.762Z,21.43
2023-05-01T13:32:04.379Z,21.80
2023-05-01T13:34:33.222Z,21.74
2023-05-01T13:37:01.303Z,21.79
2023-05-01T13:39:28.304Z,21.79
2023-05-01T13:41:55.189Z,21.73
2023-05-01T13:44:22.229Z,21.75
2023-05-01T13:46:50.048Z,21.66
2023-05-01T13:49:18.393Z,22.11
2023-05-01T13:51:46.873Z,22.00
2023-05-01T13:54:14.093Z,22.13
2023-05-01T13:56:41.368Z,21.89
2023-05-01T13:59:08.805Z,21.40
2023-05-01T14:01:43.234Z,21.34
2023-05-01T14:04:13.320Z,21.28
2023-05-01T14:06:43.072Z,21.09
2023-05-01T14:09:10.625Z,20.79
2023-05-01T14:11:43.703Z,19.83
2023-05-01T14:14:11.376Z,19.38
2023-05-01T14:16:38.364Z,19.54
2023-05-01T14:19:05.972Z,19.59
2023-05-01T14:21:35.531Z,19.40
2023-05-01T14:24:02.813Z,19.60
2023-05-01T14:26:29.625Z,19.75
2023-05-01T14:28:56.437Z,19.84
2023-05-01T14:31:27.618Z,19.54
2023-05-01T14:34:03.982Z,19.60
2023-05-01T14:36:34.040Z,19.55
2023-05-01T14:39:02.119Z,19.96
2023-05-01T14:41:30.047Z,19.93
2023-05-01T14:43:57.229Z,20.00
2023-05-01T14:46:34.901Z,19.62
2023-05-01T14:49:01.954Z,19.14
2023-05-01T14:51:31.489Z,19.14
2023-05-01T14:53:58.462Z,18.95
2023-05-01T14:56:25.615Z,19.10
2023-05-01T14:58:52.483Z,19.39
2023-05-01T15:01:20.007Z,19.17
2023-05-01T15:03:47.578Z,19.28
2023-05-01T15:06:14.978Z,19.61
2023-05-01T15:08:42.166Z,19.55
2023-05-01T15:11:09.572Z,19.79
2023-05-01T15:13:36.897Z,19.93
2023-05-01T15:16:04.080Z,20.00
2023-05-01T15:18:31.586Z,19.98
2023-05-01T15:20:58.745Z,19.97
2023-05-01T15:23:27.467Z,19.83
2023-05-01T15:25:54.993Z,19.84
2023-05-01T15:28:22.270Z,19.71
2023-05-01T15:30:49.141Z,19.86
2023-05-01T15:33:18.831Z,20.05
2023-05-01T15:35:47.077Z,20.24
2023-05-01T15:38:13.933Z,20.64
2023-05-01T15:40:43.229Z,20.64
2023-05-01T15:43:10.366Z,21.02
2023-05-01T15:45:42.801Z,21.36
2023-05-01T15:48:11.420Z,21.50
2023-05-01T15:50:38.398Z,21.53
2023-05-01T15:53:06.192Z,21.50
2023-05-01T15:55:34.763Z,21.37
2023-05-01T15:58:02.962Z,21.60
2023-05-01T16:00:44.348Z,22.10
2023-05-01T16:06:20.651Z,22.16
2023-05-01T16:08:47.553Z,22.16
2023-05-01T16:11:15.062Z,22.49
2023-05-01T16:13:43.502Z,22.76
2023-05-01T16:16:11.543Z,22.97
2023-05-01T16:18:43.208Z,23.02
2023-05-01T16:21:11.571Z,23.09
2023-05-01T16:23:38.835Z,23.24
2023-05-01T16:26:06.328Z,23.40
2023-05-01T16:28:37.017Z,23.64
2023-05-01T16:31:10.472Z,23.76
2023-05-01T16:33:43.286Z,24.06
2023-05-01T16:36:10.378Z,24.57
2023-05-01T16:38:38.031Z,24.74
2023-05-01T16:41:05.336Z,25.11
2023-05-01T16:43:32.129Z,25.19
2023-05-01T16:45:59.013Z,25.55
2023-05-01T16:48:26.273Z,25.61
2023-05-01T16:50:59.826Z,25.45
2023-05-01T16:53:26.937Z,25.61
2023-05-01T16:55:53.743Z,26.16
2023-05-01T16:58:20.653Z,26.21
2023-05-01T17:00:47.637Z,26.16
2023-05-01T17:03:14.951Z,26.50
2023-05-01T17:05:41.994Z,26.68
2023-05-01T17:08:08.818Z,26.77
2023-05-01T17:10:38.289Z,26.80
2023-05-01T17:13:06.494Z,27.06
2023-05-01T17:15:33.340Z,27.32
2023-05-01T17:18:00.426Z,27.43
2023-05-01T17:20:27.389Z,27.73
2023-05-01T17:22:54.297Z,28.40
2023-05-01T17:25:21.421Z,28.48
2023-05-01T17:27:48.267Z,28.75
2023-05-01T17:30:15.270Z,28.94
2023-05-01T17:32:43.138Z,28.86
2023-05-01T17:35:10.167Z,28.86
2023-05-01T17:37:39.915Z,29.05
2023-05-01T17:40:13.720Z,29.20
2023-05-01T17:42:40.588Z,29.49
2023-05-01T17:45:10.101Z,29.65
2023-05-01T17:47:37.267Z,29.75
2023-05-01T17:50:04.829Z,29.93
2023-05-01T17:52:31.857Z,30.37
2023-05-01T17:54:58.948Z,31.01
2023-05-01T17:57:25.990Z,31.98
2023-05-01T17:59:52.829Z,32.33
2023-05-01T18:02:19.963Z,32.47
2023-05-01T18:04:50.159Z,32.81
2023-05-01T18:07:17.237Z,33.36
2023-05-01T18:09:44.033Z,34.07
2023-05-01T18:12:11.350Z,34.66
2023-05-01T18:14:38.822Z,34.64
2023-05-01T18:17:05.645Z,34.86
2023-05-01T18:19:33.265Z,35.30
2023-05-01T18:22:00.332Z,35.50
2023-05-01T18:24:27.303Z,35.62
2023-05-01T18:26:54.226Z,35.75
2023-05-01T18:29:22.810Z,36.00
2023-05-01T18:31:51.057Z,36.20
2023-05-01T18:34:19.279Z,36.58
2023-05-01T18:36:52.112Z,36.94
2023-05-01T18:39:21.886Z,36.99
2023-05-01T18:41:49.498Z,37.05
2023-05-01T18:44:17.240Z,37.20
2023-05-01T18:46:44.252Z,37.57
2023-05-01T18:49:11.391Z,37.88
2023-05-01T18:51:42.755Z,37.98
2023-05-01T18:54:10.525Z,38.44
2023-05-01T18:56:38.036Z,38.70
2023-05-01T18:59:07.307Z,38.81
2023-05-01T19:01:38.430Z,39.07
2023-05-01T19:04:06.724Z,39.23
2023-05-01T19:06:33.970Z,39.34
2023-05-01T19:13:32.702Z,39.83
2023-05-01T19:15:59.882Z,40.38
2023-05-01T19:18:27.037Z,40.86
2023-05-01T19:20:54.164Z,41.17
2023-05-01T19:23:21.120Z,41.33
2023-05-01T19:25:47.956Z,41.28
2023-05-01T19:28:14.808Z,41.46
2023-05-01T19:30:41.778Z,41.61
2023-05-01T19:33:09.666Z,41.76
2023-05-01T19:35:39.011Z,41.82
2023-05-01T19:38:05.909Z,41.98
2023-05-01T19:40:32.706Z,42.22
2023-05-01T19:43:00.359Z,42.42
2023-05-01T19:45:34.276Z,42.59
2023-05-01T19:48:06.521Z,42.72
2023-05-01T19:50:33.569Z,42.67
2023-05-01T19:53:00.518Z,42.59
2023-05-01T19:55:28.276Z,42.69
2023-05-01T19:57:55.533Z,42.85
2023-05-01T20:00:23.835Z,42.84
2023-05-01T20:02:51.887Z,42.92
2023-05-01T20:05:19.959Z,43.25
2023-05-01T20:07:47.134Z,43.28
2023-05-01T20:10:15.337Z,43.65
2023-05-01T20:12:43.333Z,43.86
2023-05-01T20:15:12.003Z,43.82
2023-05-01T20:17:38.902Z,43.82
2023-05-01T20:20:06.235Z,44.06
2023-05-01T20:22:33.071Z,44.19
2023-05-01T20:25:00.032Z,44.27
2023-05-01T20:27:26.997Z,44.41
2023-05-01T20:29:53.967Z,44.57
2023-05-01T20:32:20.825Z,44.74
2023-05-01T20:34:48.043Z,44.73
2023-05-01T20:37:14.917Z,44.97
2023-05-01T20:39:41.935Z,45.28
2023-05-01T20:42:09.817Z,45.34
2023-05-01T20:44:36.762Z,45.47
2023-05-01T20:47:03.711Z,45.41
2023-05-01T20:49:30.568Z,45.47
2023-05-01T20:56:31.251Z,45.86
2023-05-01T20:59:00.928Z,46.04
2023-05-01T21:01:29.990Z,46.04
2023-05-01T21:03:58.824Z,46.10
2023-05-01T21:06:27.355Z,46.34
2023-05-01T21:09:01.591Z,46.56
2023-05-01T21:11:28.584Z,46.64
2023-05-01T21:13:57.647Z,46.66
2023-05-01T21:16:24.981Z,46.65
2023-05-01T21:18:52.866Z,46.72
2023-05-01T21:21:19.997Z,46.76
2023-05-01T21:23:48.125Z,46.59
2023-05-01T21:26:16.199Z,46.57
2023-05-01T21:28:43.871Z,46.56
2023-05-01T21:31:14.685Z,46.69
2023-05-01T21:33:48.130Z,46.62
2023-05-01T21:36:17.179Z,46.72
2023-05-01T21:38:45.952Z,46.69
2023-05-01T21:41:15.458Z,46.64
2023-05-01T21:43:44.122Z,46.70
2023-05-01T21:46:16.129Z,46.58
2023-05-01T21:48:43.295Z,46.56
2023-05-01T21:51:10.485Z,46.43
2023-05-01T21:53:38.285Z,46.45
2023-05-01T21:56:06.183Z,46.53
2023-05-01T21:58:34.075Z,46.38
2023-05-01T22:01:01.073Z,46.37
2023-05-01T22:03:28.211Z,46.23
2023-05-01T22:05:55.286Z,46.01
2023-05-01T22:08:23.632Z,45.89
2023-05-01T22:10:50.631Z,45.98
2023-05-01T22:13:18.022Z,46.06
2023-05-01T22:15:48.882Z,46.09
2023-05-01T22:18:19.593Z,45.99
2023-05-01T22:20:46.757Z,45.82
2023-05-01T22:23:14.373Z,45.84
2023-05-01T22:25:41.356Z,45.82
2023-05-01T22:28:09.019Z,45.93
2023-05-01T22:30:37.404Z,45.96
2023-05-01T22:33:04.541Z,45.99
2023-05-01T22:35:33.216Z,46.17
2023-05-01T22:38:02.615Z,46.11
2023-05-01T22:40:32.692Z,46.01
2023-05-01T22:43:02.811Z,45.99
2023-05-01T22:45:33.419Z,45.79
2023-05-01T22:52:52.470Z,45.59
2023-05-01T22:55:21.344Z,45.63
2023-05-01T22:57:50.142Z,45.09
2023-05-01T23:00:19.779Z,45.00
2023-05-01T23:02:49.870Z,44.99
2023-05-01T23:05:19.771Z,45.25
2023-05-01T23:07:50.130Z,45.15
2023-05-01T23:10:20.416Z,45.05
2023-05-01T23:12:49.814Z,44.97
2023-05-01T23:15:23.829Z,44.88
2023-05-01T23:17:53.419Z,45.00
2023-05-01T23:20:24.507Z,45.21
2023-05-01T23:22:53.438Z,45.55
2023-05-01T23:25:26.150Z,45.75
2023-05-01T23:27:56.855Z,45.87
2023-05-01T23:30:26.868Z,45.92
2023-05-01T23:32:59.959Z,45.95
2023-05-01T23:43:01.291Z,45.99
2023-05-01T23:45:28.235Z,46.29
2023-05-01T23:47:55.366Z,46.41
2023-05-01T23:50:25.392Z,46.53
2023-05-01T23:52:52.374Z,46.61
2023-05-01T23:55:19.261Z,46.80
2023-05-01T23:57:46.755Z,46.94
